Time;durP1;ratioP1;P1;durP2;ratioP2;P2;SDS_P1;SDS_P2;PMS_P1;PMS_P2;Temp;Humidity;BMP_temperature;BMP_pressure;BME280_temperature;BME280_humidity;BME280_pressure;Samples;Min_cycle;Max_cycle;Signal;HPM_P1;HPM_P2
2022/04/05 00:00:18;;;;;;;5.57;3.58;;;7.40;99.90;;;;;;5070729;28;20055;-81
2022/04/05 00:05:36;;;;;;;8.25;3.70;;;;;;;;;;5072610;28;20027;-81
2022/04/05 00:09:01;;;;;;;8.07;4.07;;;7.00;99.90;;;;;;5076401;28;20028;-80
2022/04/05 00:12:13;;;;;;;9.40;4.55;;;7.40;99.90;;;;;;5076872;28;20031;-80
2022/04/05 00:18:53;;;;;;;8.18;4.55;;;6.70;99.90;;;;;;5066219;28;20077;-80
2022/04/05 00:21:49;;;;;;;6.88;4.28;;;6.40;99.90;;;;;;5073112;28;20108;-81
2022/04/05 00:27:45;;;;;;;8.10;4.65;;;;;;;;;;5038224;28;20089;-81
2022/04/05 00:31:01;;;;;;;6.65;4.65;;;6.70;99.90;;;;;;5028029;28;20026;-80
2022/04/05 00:37:33;;;;;;;8.10;4.70;;;6.70;99.90;;;;;;5017925;28;20507;-81
2022/04/05 00:40:30;;;;;;;7.60;4.82;;;6.80;99.90;;;;;;5014681;28;20030;-80
2022/04/05 00:44:12;;;;;;;11.07;6.10;;;6.70;99.90;;;;;;5056171;28;20037;-80
2022/04/05 00:47:44;;;;;;;8.77;5.45;;;6.30;99.90;;;;;;5066973;28;20044;-81
2022/04/05 00:50:58;;;;;;;8.85;5.50;;;6.60;99.90;;;;;;5051351;28;20118;-80
2022/04/05 00:54:20;;;;;;;9.07;5.00;;;6.50;99.90;;;;;;5050019;28;20473;-80
2022/04/05 00:56:53;;;;;;;13.50;5.95;;;6.80;99.90;;;;;;5051860;28;20017;-80
2022/04/05 00:59:51;;;;;;;9.95;5.68;;;6.70;99.90;;;;;;5072359;28;20074;-81
2022/04/05 01:02:42;;;;;;;9.55;5.38;;;6.40;99.90;;;;;;5073439;28;20039;-80
2022/04/05 01:05:40;;;;;;;8.05;5.10;;;5.30;99.90;;;;;;5060323;28;20126;-81
2022/04/05 01:08:44;;;;;;;8.80;5.22;;;6.00;99.90;;;;;;5073305;28;20127;-82
2022/04/05 01:15:11;;;;;;;8.55;5.30;;;6.10;99.90;;;;;;5086714;28;20035;-80
2022/04/05 01:17:51;;;;;;;8.38;5.28;;;6.70;99.90;;;;;;5058634;28;20513;-81
2022/04/05 01:20:28;;;;;;;11.05;5.70;;;;;;;;;;5073026;28;20048;-81
2022/04/05 01:23:44;;;;;;;7.82;5.40;;;6.70;99.90;;;;;;5073168;28;20379;-82
2022/04/05 01:30:10;;;;;;;13.23;5.78;;;6.60;99.90;;;;;;5042873;28;20049;-81
2022/04/05 01:33:00;;;;;;;8.80;6.10;;;6.10;99.90;;;;;;5032883;28;20542;-80
2022/04/05 01:35:53;;;;;;;11.68;6.70;;;6.60;99.90;;;;;;4985908;28;20467;-81
2022/04/05 01:38:54;;;;;;;13.10;7.15;;;6.50;99.90;;;;;;5018275;28;20030;-83
2022/04/05 01:42:18;;;;;;;10.88;6.43;;;6.40;99.90;;;;;;5008952;28;20085;-82
2022/04/05 01:45:18;;;;;;;10.57;6.55;;;5.60;99.90;;;;;;5004058;28;20114;-83
2022/04/05 01:48:07;;;;;;;12.18;6.70;;;6.30;99.90;;;;;;5142260;22;20038;-80
2022/04/05 01:50:35;;;;;;;10.25;6.90;;;;;;;;;;5014611;28;20102;-82
2022/04/05 01:53:02;;;;;;;10.55;6.53;;;6.40;99.90;;;;;;5003662;28;20101;-81
2022/04/05 01:55:31;;;;;;;13.07;6.53;;;6.40;99.90;;;;;;5055443;28;20056;-81
2022/04/05 01:57:58;;;;;;;9.70;6.93;;;;;;;;;;5082724;23;20033;-90
2022/04/05 02:00:24;;;;;;;10.02;7.18;;;6.40;99.90;;;;;;5052636;28;20093;-89
2022/04/05 02:02:50;;;;;;;11.25;7.28;;;6.30;99.90;;;;;;5057480;28;20040;-90
2022/04/05 02:05:16;;;;;;;11.95;7.10;;;6.40;99.90;;;;;;5037633;28;20009;-90
2022/04/05 02:07:42;;;;;;;10.05;6.95;;;;;;;;;;5041054;28;20052;-89
2022/04/05 02:10:11;;;;;;;12.50;6.78;;;6.40;99.90;;;;;;5029107;28;20033;-88
2022/04/05 02:12:37;;;;;;;10.80;6.95;;;6.40;99.90;;;;;;5048243;28;20026;-90
2022/04/05 02:15:03;;;;;;;11.98;7.43;;;7.80;99.90;;;;;;5051162;28;20024;-90
2022/04/05 02:17:29;;;;;;;12.38;6.82;;;6.40;99.90;;;;;;5031286;28;20032;-88
2022/04/05 02:19:56;;;;;;;9.52;6.00;;;7.60;99.90;;;;;;5038945;28;20025;-89
2022/04/05 02:22:23;;;;;;;8.90;6.57;;;;;;;;;;5037099;28;20081;-89
2022/04/05 02:24:49;;;;;;;9.85;7.25;;;;;;;;;;5034876;28;20064;-89
2022/04/05 02:27:15;;;;;;;10.75;6.47;;;;;;;;;;5022925;28;20017;-87
2022/04/05 02:29:41;;;;;;;11.10;7.10;;;6.40;99.90;;;;;;5034212;28;20045;-88
2022/04/05 02:32:07;;;;;;;12.35;7.68;;;8.60;99.90;;;;;;5054071;28;20013;-90
2022/04/05 02:34:33;;;;;;;10.82;7.20;;;;;;;;;;5017599;28;20010;-89
2022/04/05 02:36:59;;;;;;;11.45;7.53;;;6.30;99.90;;;;;;5046680;28;20025;-90
2022/04/05 02:39:25;;;;;;;10.63;6.90;;;6.30;99.90;;;;;;5035754;28;20034;-91
2022/04/05 02:41:51;;;;;;;10.55;7.43;;;7.30;99.90;;;;;;5039372;28;20028;-89
2022/04/05 02:44:16;;;;;;;10.38;7.40;;;6.80;99.90;;;;;;5033370;28;20093;-89
2022/04/05 02:46:42;;;;;;;12.73;7.80;;;6.30;99.90;;;;;;5030956;28;20419;-88
2022/04/05 02:49:09;;;;;;;12.20;8.02;;;6.20;99.90;;;;;;5051194;28;20029;-85
2022/04/05 02:51:35;;;;;;;10.13;7.38;;;6.20;99.90;;;;;;5039510;28;20033;-86
2022/04/05 02:54:01;;;;;;;13.15;8.38;;;;;;;;;;5040222;28;20077;-87
2022/04/05 02:56:27;;;;;;;12.35;7.63;;;;;;;;;;5034445;28;20025;-89
2022/04/05 02:58:53;;;;;;;12.57;8.43;;;;;;;;;;5023554;28;20013;-87
2022/04/05 03:01:19;;;;;;;12.55;8.48;;;;;;;;;;5034999;28;20080;-87
2022/04/05 03:03:47;;;;;;;15.27;8.27;;;;;;;;;;5041698;28;20025;-87
2022/04/05 03:06:14;;;;;;;13.77;8.02;;;;;;;;;;5031413;28;20052;-87
2022/04/05 03:08:40;;;;;;;15.13;9.15;;;;;;;;;;5030019;28;20120;-88
2022/04/05 03:11:07;;;;;;;12.75;8.25;;;;;;;;;;5035937;28;20041;-86
2022/04/05 03:13:33;;;;;;;12.50;8.38;;;6.00;99.90;;;;;;5035570;28;20028;-85
2022/04/05 03:15:59;;;;;;;12.20;7.20;;;;;;;;;;5039270;28;20033;-88
2022/04/05 03:18:25;;;;;;;13.45;7.63;;;;;;;;;;5034255;28;20024;-88
2022/04/05 03:20:52;;;;;;;10.48;7.40;;;;;;;;;;5025526;28;20026;-87
2022/04/05 03:23:20;;;;;;;9.23;6.50;;;6.20;99.90;;;;;;5056063;28;20017;-87
2022/04/05 03:25:46;;;;;;;11.23;6.93;;;;;;;;;;5048471;28;20029;-88
2022/04/05 03:28:12;;;;;;;11.85;7.38;;;;;;;;;;5051112;28;20034;-89
2022/04/05 03:30:38;;;;;;;11.40;7.30;;;6.20;99.90;;;;;;5036708;28;20033;-88
2022/04/05 03:33:04;;;;;;;11.50;7.78;;;;;;;;;;5024302;28;20010;-89
2022/04/05 03:35:30;;;;;;;11.98;7.90;;;;;;;;;;5015164;28;20049;-89
2022/04/05 03:37:56;;;;;;;11.10;6.95;;;6.20;99.90;;;;;;5038115;28;20037;-86
2022/04/05 03:40:22;;;;;;;10.82;6.82;;;6.70;99.90;;;;;;5052956;28;20022;-88
2022/04/05 03:42:48;;;;;;;9.98;6.93;;;6.20;99.90;;;;;;5053749;28;20030;-90
2022/04/05 03:45:14;;;;;;;9.98;7.07;;;6.20;99.90;;;;;;5046919;28;20036;-87
2022/04/05 03:47:40;;;;;;;12.45;7.35;;;;;;;;;;5032557;28;20030;-87
2022/04/05 03:50:06;;;;;;;10.27;7.25;;;6.10;99.90;;;;;;5027333;28;20034;-88
2022/04/05 03:52:32;;;;;;;10.90;7.40;;;;;;;;;;5032898;28;20039;-89
2022/04/05 03:54:58;;;;;;;10.93;7.75;;;6.00;99.90;;;;;;5029022;28;20033;-89
2022/04/05 03:57:24;;;;;;;10.40;7.68;;;;;;;;;;5047415;28;20029;-88
2022/04/05 03:59:50;;;;;;;13.82;8.25;;;;;;;;;;5035115;28;20088;-87
2022/04/05 04:02:17;;;;;;;11.07;7.00;;;6.10;99.90;;;;;;5036982;28;20044;-89
2022/04/05 04:04:43;;;;;;;11.40;7.68;;;;;;;;;;5038114;28;20026;-89
2022/04/05 04:07:09;;;;;;;9.43;6.80;;;;;;;;;;5027691;28;20013;-86
2022/04/05 04:09:35;;;;;;;10.07;7.40;;;;;;;;;;5041731;28;20024;-87
2022/04/05 04:12:01;;;;;;;10.57;7.03;;;;;;;;;;5028137;28;20037;-89
2022/04/05 04:14:27;;;;;;;12.77;7.55;;;;;;;;;;5036950;28;20030;-89
2022/04/05 04:16:53;;;;;;;10.20;6.38;;;;;;;;;;5021043;28;20029;-86
2022/04/05 04:19:20;;;;;;;11.38;7.00;;;;;;;;;;5049998;28;20033;-87
2022/04/05 04:21:46;;;;;;;10.50;6.88;;;;;;;;;;5029069;28;20101;-88
2022/04/05 04:24:12;;;;;;;9.75;6.95;;;;;;;;;;5036727;28;20030;-88
2022/04/05 04:26:38;;;;;;;10.25;7.25;;;;;;;;;;5024411;28;20017;-88
2022/04/05 04:29:04;;;;;;;11.68;7.20;;;6.20;99.90;;;;;;5050632;28;20105;-88
2022/04/05 04:31:31;;;;;;;9.38;6.18;;;;;;;;;;5042456;28;20045;-89
2022/04/05 04:33:57;;;;;;;10.18;6.63;;;;;;;;;;5038816;28;20049;-88
2022/04/05 04:36:24;;;;;;;8.00;5.53;;;6.20;99.90;;;;;;5024892;28;20074;-88
2022/04/05 04:38:51;;;;;;;6.85;5.55;;;8.00;99.90;;;;;;5046059;28;20026;-89
2022/04/05 04:41:18;;;;;;;8.82;5.57;;;;;;;;;;5044604;28;20030;-91
2022/04/05 04:43:44;;;;;;;10.68;7.03;;;;;;;;;;5040140;28;20024;-90
2022/04/05 04:46:10;;;;;;;7.10;5.70;;;;;;;;;;5028692;28;20038;-90
2022/04/05 04:48:36;;;;;;;9.45;5.88;;;6.10;99.90;;;;;;5037008;28;20025;-90
2022/04/05 04:51:02;;;;;;;8.07;5.40;;;;;;;;;;5037670;28;20026;-90
2022/04/05 04:53:28;;;;;;;9.27;6.15;;;;;;;;;;5049065;28;20036;-89
2022/04/05 04:55:54;;;;;;;7.95;6.13;;;;;;;;;;5034908;28;20025;-88
2022/04/05 04:58:20;;;;;;;7.45;5.80;;;6.20;99.90;;;;;;5035150;28;20030;-88
2022/04/05 05:00:46;;;;;;;8.15;5.78;;;5.90;99.90;;;;;;5025734;28;20033;-87
2022/04/05 05:03:12;;;;;;;12.02;7.32;;;;;;;;;;5030293;28;20030;-90
2022/04/05 13:56:54;;;;;;;8.10;4.68;;;9.30;99.90;;;;;;5047583;23;20051;-84
2022/04/05 14:01:53;;;;;;;7.18;5.05;;;9.20;99.90;;;;;;5034530;28;20058;-83
2022/04/05 14:04:23;;;;;;;7.63;5.50;;;9.20;99.90;;;;;;5032545;28;20064;-81
2022/04/05 14:07:11;;;;;;;9.43;5.95;;;9.20;99.90;;;;;;5019854;28;20072;-82
2022/04/05 14:09:42;;;;;;;7.50;5.68;;;9.20;99.90;;;;;;5020542;28;20076;-80
2022/04/05 14:12:12;;;;;;;7.38;5.00;;;9.20;99.90;;;;;;4997800;28;20048;-80
2022/04/05 14:14:48;;;;;;;7.60;5.18;;;9.30;99.90;;;;;;5034325;28;20026;-80
2022/04/05 14:17:14;;;;;;;7.63;4.85;;;9.00;99.90;;;;;;5019258;28;20026;-80
2022/04/05 14:19:43;;;;;;;6.28;5.30;;;9.00;99.90;;;;;;5009889;28;20026;-80
2022/04/05 14:22:13;;;;;;;7.20;5.05;;;9.30;99.90;;;;;;5008999;28;20041;-81
2022/04/05 14:24:40;;;;;;;6.13;4.80;;;9.30;99.90;;;;;;5032356;28;20025;-81
2022/04/05 14:27:07;;;;;;;7.03;4.65;;;9.20;99.90;;;;;;4995719;28;20030;-81
2022/04/05 14:29:35;;;;;;;5.97;4.70;;;9.40;99.90;;;;;;5029974;28;20046;-81
2022/04/05 14:32:04;;;;;;;6.55;5.07;;;10.80;99.90;;;;;;4991764;28;20038;-82
2022/04/05 14:34:30;;;;;;;5.30;4.20;;;9.60;99.90;;;;;;5007155;28;20018;-81
2022/04/05 14:36:59;;;;;;;6.85;4.95;;;8.50;99.90;;;;;;5001236;28;20049;-82
2022/04/05 14:39:26;;;;;;;7.55;5.03;;;9.40;99.90;;;;;;4989565;28;20034;-82
2022/04/05 14:41:56;;;;;;;6.05;5.10;;;9.40;99.90;;;;;;5024071;28;20042;-79
2022/04/05 14:44:26;;;;;;;7.68;5.57;;;9.30;99.90;;;;;;5006701;28;20038;-80
2022/04/05 14:46:55;;;;;;;8.10;5.80;;;9.30;99.90;;;;;;4994095;28;20033;-81
2022/04/05 14:49:25;;;;;;;7.97;6.00;;;9.70;99.90;;;;;;5028270;28;20025;-82
2022/04/05 14:52:01;;;;;;;7.70;5.85;;;10.70;99.90;;;;;;5016203;28;20029;-81
2022/04/05 14:54:33;;;;;;;8.50;5.90;;;9.40;99.90;;;;;;5008567;28;20033;-81
2022/04/05 14:57:08;;;;;;;8.32;6.07;;;9.40;99.90;;;;;;5009059;28;20021;-80
2022/04/05 14:59:38;;;;;;;7.88;6.07;;;7.90;99.90;;;;;;5008825;28;20049;-80
2022/04/05 15:02:05;;;;;;;10.88;6.40;;;9.30;99.90;;;;;;5042323;28;20423;-82
2022/04/05 15:04:34;;;;;;;8.55;6.40;;;9.70;99.90;;;;;;5023145;28;20037;-81
2022/04/05 15:07:08;;;;;;;10.32;7.20;;;9.50;99.90;;;;;;5031112;28;20021;-82
2022/04/05 15:09:38;;;;;;;11.25;7.07;;;9.30;99.90;;;;;;5047542;28;20026;-82
2022/04/05 15:12:06;;;;;;;9.13;6.60;;;9.50;99.90;;;;;;5025714;28;20029;-81
2022/04/05 15:14:42;;;;;;;8.93;6.68;;;9.60;99.90;;;;;;5040110;28;20034;-81
2022/04/05 15:17:09;;;;;;;11.43;6.70;;;9.50;99.90;;;;;;5037683;28;20045;-81
2022/04/05 15:19:35;;;;;;;7.70;6.13;;;9.30;99.90;;;;;;5054032;28;20053;-82
2022/04/05 15:22:03;;;;;;;8.93;7.25;;;10.30;99.90;;;;;;5034510;28;20031;-83
2022/04/05 15:24:29;;;;;;;8.23;6.13;;;9.50;99.90;;;;;;5021191;28;20033;-81
2022/04/05 15:26:59;;;;;;;10.30;6.93;;;9.60;99.90;;;;;;5034391;28;20032;-80
2022/04/05 15:29:38;;;;;;;9.25;6.38;;;9.30;99.90;;;;;;5023414;28;20021;-82
2022/04/05 15:32:09;;;;;;;7.80;6.00;;;9.40;99.90;;;;;;5019369;28;20040;-82
2022/04/05 15:34:36;;;;;;;8.57;6.00;;;9.40;99.90;;;;;;5047296;28;20048;-82
2022/04/05 15:37:05;;;;;;;8.57;6.40;;;9.40;99.90;;;;;;5046336;28;20041;-82
2022/04/05 15:39:31;;;;;;;8.07;6.20;;;9.60;99.90;;;;;;5029364;28;20030;-81
2022/04/05 15:42:00;;;;;;;10.52;6.32;;;9.60;99.90;;;;;;5046274;28;20037;-81
2022/04/05 15:44:31;;;;;;;9.32;6.40;;;9.60;99.90;;;;;;5031681;28;20030;-81
2022/04/05 15:47:06;;;;;;;9.43;6.82;;;9.50;99.90;;;;;;5047869;28;20021;-81
2022/04/05 15:49:32;;;;;;;7.82;5.88;;;9.50;99.90;;;;;;5025457;28;20042;-80
2022/04/05 15:51:59;;;;;;;8.88;6.40;;;9.50;99.90;;;;;;5019181;28;20040;-80
2022/04/05 15:54:30;;;;;;;11.35;6.90;;;9.70;99.90;;;;;;5038142;28;20034;-80
2022/04/05 15:56:59;;;;;;;9.35;6.53;;;9.60;99.90;;;;;;5024074;28;20040;-81
2022/04/05 15:59:30;;;;;;;8.65;6.18;;;10.80;99.90;;;;;;5021059;28;20053;-81
2022/04/05 16:01:57;;;;;;;9.90;6.72;;;9.60;99.90;;;;;;5017293;28;20034;-80
2022/04/05 16:04:24;;;;;;;9.02;6.43;;;9.60;99.90;;;;;;5005053;28;20040;-82
2022/04/05 16:06:50;;;;;;;9.23;6.75;;;9.70;99.90;;;;;;5034518;28;20104;-82
2022/04/05 16:09:21;;;;;;;9.80;6.43;;;9.60;99.90;;;;;;5044264;28;20082;-82
2022/04/05 16:11:48;;;;;;;9.15;6.72;;;9.60;99.90;;;;;;5023137;28;20026;-81
2022/04/05 16:14:21;;;;;;;7.93;6.20;;;9.60;99.90;;;;;;5039485;28;20040;-81
2022/04/05 16:16:50;;;;;;;9.13;6.72;;;9.60;99.90;;;;;;5022146;28;20033;-82
2022/04/05 16:19:19;;;;;;;10.57;7.30;;;9.70;99.90;;;;;;5041676;28;20024;-81
2022/04/05 16:21:46;;;;;;;9.40;6.53;;;9.60;99.90;;;;;;5020002;28;20414;-81
2022/04/05 16:24:12;;;;;;;10.10;7.00;;;9.60;99.90;;;;;;5021450;28;20029;-80
2022/04/05 16:26:39;;;;;;;11.43;7.20;;;8.90;99.90;;;;;;5020751;28;20052;-81
2022/04/05 16:29:07;;;;;;;11.50;7.88;;;9.10;99.90;;;;;;5039319;28;20057;-81
2022/04/05 16:31:34;;;;;;;10.00;7.43;;;9.90;99.90;;;;;;5023154;28;20039;-80
2022/04/05 16:34:03;;;;;;;9.73;7.45;;;9.70;99.90;;;;;;5037545;28;20017;-81
2022/04/05 16:36:32;;;;;;;12.70;8.57;;;9.70;99.90;;;;;;5021377;28;20022;-81
2022/04/05 16:38:59;;;;;;;11.77;8.13;;;9.80;99.90;;;;;;5021720;28;20040;-81
2022/04/05 16:41:25;;;;;;;11.10;7.63;;;9.70;99.90;;;;;;5018911;28;20030;-81
2022/04/05 16:43:51;;;;;;;10.55;7.72;;;9.70;99.90;;;;;;5027416;28;20025;-81
2022/04/05 16:48:53;;;;;;;13.35;9.02;;;9.80;99.90;;;;;;5069224;23;20047;-81
2022/04/05 16:51:21;;;;;;;11.30;8.20;;;9.70;99.90;;;;;;5065804;28;20024;-83
2022/04/05 16:53:50;;;;;;;11.85;9.00;;;9.80;99.90;;;;;;5055643;28;20111;-81
2022/04/05 16:56:16;;;;;;;13.35;9.40;;;9.70;99.90;;;;;;5050693;28;20072;-82
2022/04/05 16:58:53;;;;;;;12.85;8.77;;;9.70;99.90;;;;;;5076924;28;20053;-83
2022/04/05 17:01:28;;;;;;;13.70;9.15;;;8.60;99.90;;;;;;5065464;28;20039;-83
2022/04/05 17:03:56;;;;;;;12.90;9.00;;;9.70;99.90;;;;;;5066575;28;20481;-82
2022/04/05 17:06:22;;;;;;;12.55;8.82;;;9.70;99.90;;;;;;5098888;28;20493;-82
2022/04/05 17:08:57;;;;;;;13.05;8.82;;;9.60;99.90;;;;;;5068373;28;20028;-83
2022/04/05 17:11:28;;;;;;;11.57;7.75;;;9.90;99.90;;;;;;5076047;28;20033;-82
2022/04/05 17:14:00;;;;;;;13.07;8.90;;;9.60;99.90;;;;;;5065015;28;20024;-83
2022/04/05 17:16:30;;;;;;;13.70;9.73;;;8.90;99.90;;;;;;5077365;28;20060;-82
2022/04/05 17:18:56;;;;;;;11.57;8.45;;;9.60;99.90;;;;;;5084520;28;20109;-80
2022/04/05 17:21:24;;;;;;;12.15;8.65;;;9.60;99.90;;;;;;5080166;28;20032;-81
2022/04/05 17:24:02;;;;;;;12.85;9.02;;;9.70;99.90;;;;;;5080119;28;20020;-82
2022/04/05 17:30:05;;;;;;;12.85;8.77;;;9.60;99.90;;;;;;4981055;28;20519;-82
2022/04/05 17:32:54;;;;;;;12.30;8.40;;;9.70;99.90;;;;;;4990259;28;20065;-83
2022/04/05 17:35:38;;;;;;;12.38;8.82;;;9.30;99.90;;;;;;5088250;28;20037;-82
2022/04/05 17:38:21;;;;;;;12.38;8.43;;;9.60;99.90;;;;;;5049397;28;20036;-80
2022/04/05 17:44:07;;;;;;;11.38;7.93;;;9.70;99.90;;;;;;5072512;28;20071;-84
2022/04/05 17:47:02;;;;;;;13.30;8.80;;;9.70;99.90;;;;;;5095652;28;20028;-83
2022/04/05 17:50:05;;;;;;;12.75;8.75;;;9.60;99.90;;;;;;5076191;28;20020;-82
2022/04/05 17:52:39;;;;;;;11.23;7.88;;;8.30;99.90;;;;;;5080520;28;20021;-84
2022/04/05 17:55:24;;;;;;;18.05;12.80;;;10.50;99.90;;;;;;5059007;28;20041;-83
2022/04/05 17:57:53;;;;;;;12.10;8.15;;;9.60;99.90;;;;;;5072798;28;20040;-80
2022/04/05 18:00:23;;;;;;;12.38;8.98;;;9.70;99.90;;;;;;5055687;28;20082;-82
2022/04/05 18:02:55;;;;;;;14.88;10.43;;;9.60;99.90;;;;;;5073882;28;20094;-82
2022/04/05 18:05:24;;;;;;;12.45;7.78;;;9.70;99.90;;;;;;5062161;28;20500;-82
2022/04/05 18:07:53;;;;;;;11.90;7.80;;;9.80;99.90;;;;;;5062255;28;20017;-81
2022/04/05 18:10:22;;;;;;;16.13;10.07;;;9.60;99.90;;;;;;5066414;28;20037;-82
2022/04/05 18:13:08;;;;;;;;;;;;;;;;;;;;;
2022/04/05 18:15:56;;;;;;;10.75;7.72;;;9.00;99.90;;;;;;5055513;28;20029;-80
2022/04/05 18:18:33;;;;;;;10.88;7.30;;;9.70;99.90;;;;;;5078960;28;20012;-83
2022/04/05 18:21:08;;;;;;;11.52;8.07;;;9.70;99.90;;;;;;5066844;28;20035;-82
2022/04/05 18:24:11;;;;;;;11.90;8.45;;;9.60;99.90;;;;;;5076583;28;20036;-82
2022/04/05 18:27:04;;;;;;;10.75;7.47;;;9.60;99.90;;;;;;5061601;28;20401;-80
2022/04/05 18:29:57;;;;;;;15.30;8.65;;;9.60;99.90;;;;;;5084034;28;20389;-82
2022/04/05 18:32:41;;;;;;;13.30;8.35;;;10.30;99.90;;;;;;5083215;28;20032;-82
2022/04/05 18:35:19;;;;;;;14.35;8.93;;;8.50;99.90;;;;;;5082438;28;20032;-80
2022/04/05 18:37:46;;;;;;;12.20;8.73;;;9.50;99.90;;;;;;5068569;28;20059;-79
2022/04/05 18:40:18;;;;;;;12.35;8.68;;;9.50;99.90;;;;;;5065128;28;20363;-81
2022/04/05 18:42:49;;;;;;;11.05;7.45;;;9.40;99.90;;;;;;5076673;28;20104;-82
2022/04/05 18:45:24;;;;;;;12.20;7.65;;;9.50;99.90;;;;;;5063611;28;20468;-81
2022/04/05 18:47:54;;;;;;;12.18;8.10;;;8.30;99.90;;;;;;5093762;28;20036;-80
2022/04/05 18:50:26;;;;;;;14.93;8.40;;;9.50;99.90;;;;;;5086409;28;20039;-82
2022/04/05 18:53:14;;;;;;;12.27;8.27;;;10.30;99.90;;;;;;5070966;28;20021;-82
2022/04/05 18:55:42;;;;;;;12.00;8.30;;;8.90;99.90;;;;;;5085097;28;20020;-81
2022/04/05 18:58:33;;;;;;;11.75;7.63;;;10.00;99.90;;;;;;5065441;28;20035;-81
2022/04/05 19:01:00;;;;;;;11.23;7.68;;;9.40;99.90;;;;;;5056225;28;20024;-81
2022/04/05 19:03:29;;;;;;;10.23;7.22;;;9.40;99.90;;;;;;5064810;28;20021;-81
2022/04/05 19:06:21;;;;;;;10.88;7.90;;;9.40;99.90;;;;;;5043653;28;20506;-80
2022/04/05 19:08:49;;;;;;;10.55;7.05;;;9.10;99.90;;;;;;5048902;28;20052;-81
2022/04/05 19:11:16;;;;;;;11.90;7.63;;;9.40;99.90;;;;;;5057435;28;20057;-81
2022/04/05 19:13:44;;;;;;;11.75;8.25;;;9.40;99.90;;;;;;5045236;28;20036;-82
2022/04/05 19:16:10;;;;;;;13.57;8.40;;;9.50;99.90;;;;;;5039779;28;20025;-82
2022/04/05 19:18:36;;;;;;;13.95;8.77;;;9.40;99.90;;;;;;5055874;28;20427;-81
2022/04/05 19:21:09;;;;;;;11.60;8.43;;;9.30;99.90;;;;;;5059141;28;20049;-81
2022/04/05 19:23:39;;;;;;;14.50;8.25;;;9.30;99.90;;;;;;5048257;28;20025;-82
2022/04/05 19:26:15;;;;;;;13.32;9.07;;;9.30;99.90;;;;;;5035457;28;20052;-81
2022/04/05 19:29:05;;;;;;;12.52;9.18;;;9.30;99.90;;;;;;5020405;28;20170;-81
2022/04/05 19:31:49;;;;;;;15.73;9.10;;;9.30;99.90;;;;;;5051682;28;20037;-81
2022/04/05 19:34:23;;;;;;;16.15;9.15;;;9.30;99.90;;;;;;5060997;28;20087;-81
2022/04/05 19:36:53;;;;;;;13.52;8.90;;;9.30;99.90;;;;;;5040681;28;20036;-81
2022/04/05 19:39:37;;;;;;;13.00;9.20;;;9.30;99.90;;;;;;5055261;28;20033;-81
2022/04/05 19:42:42;;;;;;;12.90;8.68;;;9.40;99.90;;;;;;5038435;28;20449;-83
2022/04/05 19:45:22;;;;;;;11.75;8.32;;;8.60;99.90;;;;;;5039821;28;20033;-80
2022/04/05 19:47:48;;;;;;;12.80;8.68;;;9.40;99.90;;;;;;5056701;28;20029;-81
2022/04/05 19:50:16;;;;;;;11.00;8.52;;;9.40;99.90;;;;;;5060041;28;20029;-81
2022/04/05 19:52:41;;;;;;;12.68;9.07;;;8.70;99.90;;;;;;5032678;28;20032;-81
2022/04/05 19:55:14;;;;;;;12.73;8.40;;;9.40;99.90;;;;;;5054476;28;20025;-81
2022/04/05 19:57:44;;;;;;;13.98;9.20;;;9.40;99.90;;;;;;5054295;28;20047;-81
2022/04/05 20:00:16;;;;;;;12.18;8.85;;;8.80;99.90;;;;;;5050754;28;20109;-82
2022/04/05 20:19:12;;;;;;;11.82;8.43;;;9.50;99.90;;;;;;5070133;28;20029;-88
2022/04/05 20:21:38;;;;;;;11.55;8.07;;;9.50;99.90;;;;;;5066127;28;20028;-87
2022/04/05 20:24:04;;;;;;;12.05;8.98;;;9.50;99.90;;;;;;5066787;28;20017;-88
2022/04/05 20:26:34;;;;;;;17.85;11.68;;;9.50;99.90;;;;;;5061804;28;20033;-88
2022/04/05 20:29:03;;;;;;;12.00;8.05;;;9.40;99.90;;;;;;5049559;28;20100;-89
2022/04/05 20:31:29;;;;;;;10.60;8.23;;;9.60;99.90;;;;;;5051879;28;20029;-90
2022/04/05 20:33:55;;;;;;;13.45;8.07;;;9.50;99.90;;;;;;5066831;28;20091;-87
2022/04/05 20:36:22;;;;;;;10.00;7.40;;;9.40;99.90;;;;;;5067336;28;20017;-89
2022/04/05 20:38:48;;;;;;;11.52;7.80;;;10.30;99.90;;;;;;5071282;28;20025;-91
2022/04/05 20:41:14;;;;;;;11.50;7.90;;;10.00;99.90;;;;;;5079697;28;20096;-88
2022/04/05 20:43:40;;;;;;;11.60;7.97;;;9.40;99.90;;;;;;5075211;28;20043;-88
2022/04/05 20:46:07;;;;;;;11.02;8.07;;;9.50;99.90;;;;;;5087367;28;20020;-88
2022/04/05 20:48:33;;;;;;;10.30;8.00;;;10.40;99.90;;;;;;5066758;28;20252;-89
2022/04/05 20:50:59;;;;;;;10.55;7.20;;;10.10;99.90;;;;;;5086958;28;20032;-87
2022/04/05 20:53:26;;;;;;;11.23;7.60;;;9.60;99.90;;;;;;5086625;28;20059;-90
2022/04/05 20:55:52;;;;;;;12.57;8.27;;;9.50;99.90;;;;;;5090085;28;20025;-89
2022/04/05 20:58:20;;;;;;;11.45;7.90;;;9.60;99.90;;;;;;5074445;28;20021;-89
2022/04/05 21:00:46;;;;;;;11.38;7.85;;;9.60;99.90;;;;;;5067102;28;20028;-88
2022/04/05 21:03:12;;;;;;;10.60;7.68;;;9.60;99.90;;;;;;5077505;28;20032;-89
2022/04/05 21:05:39;;;;;;;10.93;8.02;;;10.20;99.90;;;;;;5069793;28;20005;-88
2022/04/05 21:08:08;;;;;;;9.50;7.47;;;9.70;99.90;;;;;;5066037;28;20017;-89
2022/04/05 21:10:34;;;;;;;11.27;8.40;;;9.60;99.90;;;;;;5069297;28;20520;-90
2022/04/05 21:13:00;;;;;;;10.70;8.60;;;9.60;99.90;;;;;;5071636;28;20041;-88
2022/04/05 21:15:26;;;;;;;12.55;9.15;;;9.70;99.90;;;;;;5086603;28;20096;-89
2022/04/05 21:17:53;;;;;;;9.73;7.28;;;9.60;99.90;;;;;;5088496;28;20021;-86
2022/04/05 21:20:19;;;;;;;10.38;8.15;;;9.30;99.90;;;;;;5057691;28;20009;-87
2022/04/05 21:22:45;;;;;;;10.95;8.45;;;9.90;99.90;;;;;;5067199;28;20067;-88
2022/04/05 21:25:11;;;;;;;12.23;9.15;;;10.00;99.90;;;;;;5069532;28;20044;-87
2022/04/05 21:27:37;;;;;;;13.95;9.20;;;9.70;99.90;;;;;;5088068;28;20101;-88
2022/04/05 21:30:04;;;;;;;12.80;9.43;;;9.60;99.90;;;;;;5071278;28;20017;-88
2022/04/05 21:32:30;;;;;;;11.35;9.18;;;9.70;99.90;;;;;;5077710;28;20016;-89
2022/04/05 21:34:55;;;;;;;15.25;9.15;;;9.60;99.90;;;;;;5073654;28;20086;-87
2022/04/05 21:37:21;;;;;;;11.13;8.43;;;9.90;99.90;;;;;;5087022;28;20032;-89
2022/04/05 21:39:50;;;;;;;11.70;9.23;;;9.70;99.90;;;;;;5072204;28;20017;-89
2022/04/05 21:42:18;;;;;;;12.27;8.80;;;9.80;99.90;;;;;;5069894;28;20023;-87
2022/04/05 21:44:44;;;;;;;13.77;9.23;;;9.80;99.90;;;;;;5070298;28;20016;-89
2022/04/05 21:47:10;;;;;;;12.15;8.52;;;9.80;99.90;;;;;;5065871;28;20040;-87
2022/04/05 21:49:39;;;;;;;13.30;9.38;;;11.10;99.90;;;;;;5059870;28;20017;-87
2022/04/05 21:52:11;;;;;;;13.50;9.35;;;9.90;99.90;;;;;;5068900;28;20043;-89
2022/04/05 21:54:37;;;;;;;13.48;10.38;;;9.70;99.90;;;;;;5066549;28;20008;-91
2022/04/05 21:57:03;;;;;;;14.15;9.98;;;9.70;99.90;;;;;;5072432;28;20110;-90
2022/04/05 21:59:31;;;;;;;12.90;9.70;;;9.70;99.90;;;;;;5075564;28;20013;-89
2022/04/05 22:01:57;;;;;;;12.73;9.63;;;10.10;99.90;;;;;;5073290;28;20008;-87
2022/04/05 22:04:22;;;;;;;13.63;10.13;;;9.80;99.90;;;;;;5073943;28;20044;-87
2022/04/05 22:06:48;;;;;;;13.45;10.52;;;9.80;99.90;;;;;;5069453;28;20013;-87
2022/04/05 22:09:26;;;;;;;14.75;10.77;;;9.80;99.90;;;;;;5092175;28;20050;-89
2022/04/05 22:11:52;;;;;;;14.63;10.45;;;9.70;99.90;;;;;;5069506;28;20237;-88
2022/04/05 22:14:18;;;;;;;13.27;9.80;;;9.70;99.90;;;;;;5068688;28;20012;-87
2022/04/05 22:16:44;;;;;;;13.23;10.20;;;9.70;99.90;;;;;;5073648;28;20025;-87
2022/04/05 22:19:09;;;;;;;15.05;10.85;;;9.80;99.90;;;;;;5068146;28;20025;-89
2022/04/05 23:32:02;;;;;;;14.65;11.65;;;9.90;99.90;;;;;;5065733;28;20032;-89
2022/04/05 23:34:53;;;;;;;;;;;;;;;;;;;;;
2022/04/05 23:37:28;;;;;;;14.27;11.32;;;10.00;99.90;;;;;;5047589;28;20029;-86
2022/04/05 23:40:01;;;;;;;15.98;11.75;;;9.00;99.90;;;;;;5067948;28;20248;-86
2022/04/05 23:45:22;;;;;;;16.95;12.02;;;9.90;99.90;;;;;;5031777;28;20037;-86
2022/04/05 23:48:02;;;;;;;14.13;10.57;;;9.80;99.90;;;;;;5065920;28;20017;-87
2022/04/05 23:50:34;;;;;;;15.70;11.23;;;10.00;99.90;;;;;;5048678;28;20046;-87
2022/04/05 23:53:22;;;;;;;19.17;12.23;;;10.10;99.90;;;;;;5051076;28;20036;-86
2022/04/05 23:55:53;;;;;;;17.80;12.15;;;11.10;99.90;;;;;;5058266;28;20017;-89
2022/04/05 23:58:59;;;;;;;16.58;11.25;;;10.00;99.90;;;;;;5050244;28;20009;-88
